Flight Track Log - Related Links

Times and Time Zones

All times are in EDT time to prevent confusion due to time zone crossing. See the ASQ6115 flight status page for this flight to view local times or setup timezone preferences in your user account.

Time Position Orientation Groundspeed Altitude Reporting Facility
EDT Latitude Longitude Course Direction KTS MPH feet Rate Location/Type
Thu 03:37:40 PM 26.1431 -98.2122 142° Southeast 153 176 2,100  Level Houston Center
Thu 03:38:35 PM 26.1297 -98.1650 107° East 211 243 3,600 1,520 Climbing Houston Center
Thu 03:38:55 PM 26.1439 -98.1494 45° Northeast 212 244 4,000 1,463 Climbing Houston Center
Thu 03:39:57 PM 26.1942 -98.0953 44° Northeast 248 285 5,600 1,790 Climbing Houston Center
Thu 03:40:59 PM 26.2536 -98.0319 44° Northeast 270 311 7,700 1,935 Climbing Houston Center
Thu 03:41:00 PM 26.5000 -98.0750 24° Northeast  Level FlightAware Approximate
Thu 03:42:00 PM 26.5665 -98.0427 22° Northeast  Level FlightAware Approximate
Thu 03:42:01 PM 26.3075 -97.9714 45° Northeast 274 315 9,600  Level Houston Center
Thu 03:43:03 PM 26.3675 -97.9036 45° Northeast 283 326 11,100 1,200 Climbing Houston Center
Thu 03:44:06 PM 26.4361 -97.8450 37° Northeast 314 361 12,100 1,248 Climbing Houston Center
Thu 03:45:08 PM 26.5308 -97.8197 13° North 324 373 13,700 1,403 Climbing Houston Center
Thu 03:46:10 PM 26.6211 -97.7958 13° North 331 381 15,000 1,258 Climbing Houston Center
Thu 03:47:12 PM 26.7111 -97.7719 13° North 332 382 16,300 1,113 Climbing Houston Center
Thu 03:48:14 PM 26.8100 -97.7439 14° North 339 390 17,300 1,016 Climbing Houston Center
Thu 03:49:16 PM 26.9047 -97.7194 13° North 348 400 18,400 1,016 Climbing Houston Center
Thu 03:50:18 PM 27.0106 -97.6894 14° North 368 423 19,400 960 Climbing Houston Center
Thu 03:51:21 PM 27.1097 -97.6636 13° North 367 422 20,400 912 Climbing Houston Center
Thu 03:52:23 PM 27.1978 -97.6394 14° North 356 410 21,300 968 Climbing Houston Center
Thu 03:53:25 PM 27.3206 -97.6050 14° North 371 427 22,400 1,016 Climbing Houston Center
Thu 03:54:27 PM 27.4233 -97.5764 14° North 379 436 23,400 919 Climbing Houston Center
Thu 03:55:29 PM 27.5256 -97.5481 14° North 379 436 24,300 919 Climbing Houston Center
Thu 03:56:31 PM 27.6236 -97.4972 25° Northeast 388 447 25,300 968 Climbing Houston Center
Thu 03:57:33 PM 27.7161 -97.4347 31° Northeast 389 448 26,300 816 Climbing Houston Center
Thu 03:58:36 PM 27.8292 -97.3575 31° Northeast 394 453 27,000 336 Climbing Houston Center
Thu 03:59:38 PM 27.9281 -97.2892 31° Northeast 408 470 27,000  Level Houston Center
Thu 04:00:40 PM 28.0369 -97.2161 31° Northeast 436 502 27,000  Level Houston Center
Thu 04:01:42 PM 28.1450 -97.1422 31° Northeast 451 519 27,000  Level Houston Center
Thu 04:02:44 PM 28.2544 -97.0675 31° Northeast 457 526 27,000  Level Houston Center
Thu 04:03:46 PM 28.3656 -96.9911 31° Northeast 465 535 27,000  Level Houston Center
Thu 04:04:48 PM 28.4992 -96.8978 32° Northeast 470 541 27,000  Level Houston Center
Thu 04:05:50 PM 28.6119 -96.8200 31° Northeast 474 545 27,000  Level Houston Center
Thu 04:06:53 PM 28.7253 -96.7425 31° Northeast 476 548 27,000 -96 Level Houston Center
Thu 04:07:55 PM 28.8378 -96.6639 31° Northeast 476 548 26,800 -968 Descending Houston Center
Thu 04:08:57 PM 28.9500 -96.5869 31° Northeast 474 545 25,000 -2,274 Descending Houston Center
Thu 04:09:59 PM 29.0775 -96.4978 31° Northeast 458 527 22,100 -2,661 Descending Houston Center
Thu 04:11:01 PM 29.1817 -96.4244 32° Northeast 447 514 19,500 -2,468 Descending Houston Center
Thu 04:12:03 PM 29.2797 -96.3561 31° Northeast 423 487 17,000 -2,483 Descending Houston Center
Thu 04:12:28 PM 29.3300 -96.3225 30° Northeast 397 457 15,900 -2,129 Descending Houston Center
Thu 04:13:05 PM 29.3725 -96.2906 33° Northeast 399 459 14,800 -2,164 Descending Houston Center
Thu 04:13:29 PM 29.4231 -96.2547 32° Northeast 394 453 13,700 -2,032 Descending Houston Center
Thu 04:14:07 PM 29.4667 -96.2233 32° Northeast 399 459 12,700 -1,574 Descending Houston Center
Thu 04:14:30 PM 29.5161 -96.1892 31° Northeast 395 455 12,100 -667 Descending Houston Center
Thu 04:15:10 PM 29.5644 -96.1286 47° Northeast 395 455 12,000 -90 Descending Houston Center
Thu 04:15:37 PM 29.5922 -96.0750 59° Northeast 400 460 12,000  Level Houston Center
Thu 04:16:12 PM 29.6200 -96.0189 60° Northeast 400 460 12,000  Level Houston Center
Thu 04:16:44 PM 29.6533 -95.9553 59° Northeast 409 471 12,000  Level Houston Center
Thu 04:17:14 PM 29.6781 -95.9072 59° Northeast 408 470 12,000  Level Houston Center
Thu 04:17:39 PM 29.7067 -95.8481 61° Northeast 411 473 12,000 -387 Level Houston Center
Thu 04:18:16 PM 29.7339 -95.7936 60° Northeast 408 470 11,600 -1,091 Descending Houston Center
Thu 04:18:34 PM 29.7586 -95.7458 59° Northeast 406 467 11,000 -1,161 Descending Houston Center
Thu 04:19:18 PM 29.7903 -95.6828 60° Northeast 404 465 10,400 -892 Descending Houston Center
Thu 04:19:48 PM 29.8208 -95.6206 60° Northeast 318 366 9,900 -871 Descending Houston Center
Thu 04:20:20 PM 29.8356 -95.5928 59° Northeast 355 409 9,500 -1,750 Descending Houston Center
Thu 04:20:36 PM 29.8531 -95.5567 61° Northeast 300 345 8,500 -2,323 Descending Houston Center
Thu 04:21:22 PM 29.8850 -95.4925 60° Northeast 305 351 7,100 -1,941 Descending Houston Center
Thu 04:21:44 PM 29.8950 -95.4625 69° East 282 325 6,300 -1,065 Descending Houston Center
Thu 04:22:24 PM 29.8958 -95.4067 89° East 283 326 6,000 -436 Descending Houston Center
Thu 04:22:39 PM 29.8958 -95.3806 90° East 269 310 5,900  Descending Houston Center
Thu 04:23:27 PM 29.8969 -95.3194 89° East 275 316 6,000 55 Climbing Houston Center
Thu 04:24:29 PM 29.8969 -95.2342 90° East 268 308 6,000 -525 Level Houston Center
Thu 04:24:47 PM 29.8961 -95.2019 92° East 246 283 5,300 -2,333 Descending Houston Center

Login

Don't have an account? Register now (free) for customized features, flight alerts, and more!